sensor_id;sensor_type;location;lat;lon;timestamp;pressure;altitude;pressure_sealevel;temperature;humidity
16461;BME280;8341;42.048;24.650;2023-04-28T00:00:52;97422.94;;;10.39;53.11
16461;BME280;8341;42.048;24.650;2023-04-28T00:03:19;97419.44;;;10.38;54.05
16461;BME280;8341;42.048;24.650;2023-04-28T00:05:45;97421.72;;;10.40;53.61
16461;BME280;8341;42.048;24.650;2023-04-28T00:08:14;97426.81;;;10.47;52.83
16461;BME280;8341;42.048;24.650;2023-04-28T00:10:41;97422.94;;;10.53;52.87
16461;BME280;8341;42.048;24.650;2023-04-28T00:13:08;97417.78;;;10.55;52.66
16461;BME280;8341;42.048;24.650;2023-04-28T00:15:35;97420.22;;;10.53;52.80
16461;BME280;8341;42.048;24.650;2023-04-28T00:18:03;97421.16;;;10.50;53.71
16461;BME280;8341;42.048;24.650;2023-04-28T00:20:30;97420.88;;;10.48;54.24
16461;BME280;8341;42.048;24.650;2023-04-28T00:22:57;97420.88;;;10.48;54.57
16461;BME280;8341;42.048;24.650;2023-04-28T00:25:23;97410.06;;;10.39;56.25
16461;BME280;8341;42.048;24.650;2023-04-28T00:27:50;97420.47;;;10.41;54.98
16461;BME280;8341;42.048;24.650;2023-04-28T00:30:17;97424.22;;;10.29;54.37
16461;BME280;8341;42.048;24.650;2023-04-28T00:32:44;97422.41;;;10.26;54.13
16461;BME280;8341;42.048;24.650;2023-04-28T00:35:12;97422.28;;;10.20;54.88
16461;BME280;8341;42.048;24.650;2023-04-28T00:37:38;97415.72;;;10.03;54.04
16461;BME280;8341;42.048;24.650;2023-04-28T00:40:06;97416.94;;;10.02;55.56
16461;BME280;8341;42.048;24.650;2023-04-28T00:42:33;97419.31;;;10.09;54.88
16461;BME280;8341;42.048;24.650;2023-04-28T00:45:00;97418.72;;;10.05;55.97
16461;BME280;8341;42.048;24.650;2023-04-28T00:47:30;97425.47;;;9.95;55.28
16461;BME280;8341;42.048;24.650;2023-04-28T00:49:57;97422.09;;;10.00;54.63
16461;BME280;8341;42.048;24.650;2023-04-28T00:52:25;97431.19;;;9.97;54.62
16461;BME280;8341;42.048;24.650;2023-04-28T00:54:53;97425.53;;;9.86;56.40
16461;BME280;8341;42.048;24.650;2023-04-28T00:57:20;97422.25;;;9.73;57.26
16461;BME280;8341;42.048;24.650;2023-04-28T00:59:47;97420.78;;;9.63;56.87
16461;BME280;8341;42.048;24.650;2023-04-28T01:02:14;97433.34;;;9.60;58.00
16461;BME280;8341;42.048;24.650;2023-04-28T01:04:43;97426.25;;;9.63;57.67
16461;BME280;8341;42.048;24.650;2023-04-28T01:07:10;97427.31;;;9.56;56.84
16461;BME280;8341;42.048;24.650;2023-04-28T01:09:38;97427.72;;;9.64;56.77
16461;BME280;8341;42.048;24.650;2023-04-28T01:12:05;97433.50;;;9.57;57.17
16461;BME280;8341;42.048;24.650;2023-04-28T01:14:32;97429.75;;;9.54;56.58
16461;BME280;8341;42.048;24.650;2023-04-28T01:16:59;97430.50;;;9.55;58.05
16461;BME280;8341;42.048;24.650;2023-04-28T01:19:27;97436.56;;;9.50;57.51
16461;BME280;8341;42.048;24.650;2023-04-28T01:21:54;97421.69;;;9.27;58.36
16461;BME280;8341;42.048;24.650;2023-04-28T01:24:22;97432.81;;;9.38;58.48
16461;BME280;8341;42.048;24.650;2023-04-28T01:26:49;97433.72;;;9.35;58.10
16461;BME280;8341;42.048;24.650;2023-04-28T01:29:15;97421.94;;;9.38;57.59
16461;BME280;8341;42.048;24.650;2023-04-28T01:31:42;97423.19;;;9.28;57.82
16461;BME280;8341;42.048;24.650;2023-04-28T01:34:09;97425.88;;;9.37;58.46
16461;BME280;8341;42.048;24.650;2023-04-28T01:36:35;97432.09;;;9.28;59.04
16461;BME280;8341;42.048;24.650;2023-04-28T01:39:02;97428.81;;;9.24;58.89
16461;BME280;8341;42.048;24.650;2023-04-28T01:41:31;97427.72;;;9.31;59.50
16461;BME280;8341;42.048;24.650;2023-04-28T01:43:58;97430.28;;;9.25;58.21
16461;BME280;8341;42.048;24.650;2023-04-28T01:46:25;97425.31;;;9.24;59.26
16461;BME280;8341;42.048;24.650;2023-04-28T01:48:52;97426.09;;;9.15;58.92
16461;BME280;8341;42.048;24.650;2023-04-28T01:51:19;97424.91;;;9.16;59.63
16461;BME280;8341;42.048;24.650;2023-04-28T01:53:45;97424.00;;;9.10;58.15
16461;BME280;8341;42.048;24.650;2023-04-28T01:56:12;97427.19;;;9.09;58.50
16461;BME280;8341;42.048;24.650;2023-04-28T01:58:40;97435.50;;;9.05;58.35
16461;BME280;8341;42.048;24.650;2023-04-28T02:01:07;97423.69;;;9.08;57.78
16461;BME280;8341;42.048;24.650;2023-04-28T02:03:34;97426.09;;;9.15;56.27
16461;BME280;8341;42.048;24.650;2023-04-28T02:06:00;97424.75;;;9.11;56.46
16461;BME280;8341;42.048;24.650;2023-04-28T02:08:27;97432.78;;;8.96;57.37
16461;BME280;8341;42.048;24.650;2023-04-28T02:10:54;97443.22;;;8.98;57.97
16461;BME280;8341;42.048;24.650;2023-04-28T02:13:21;97437.63;;;8.92;57.61
16461;BME280;8341;42.048;24.650;2023-04-28T02:15:49;97441.41;;;8.86;58.90
16461;BME280;8341;42.048;24.650;2023-04-28T02:18:16;97435.66;;;8.83;57.08
16461;BME280;8341;42.048;24.650;2023-04-28T02:20:43;97442.47;;;8.79;56.61
16461;BME280;8341;42.048;24.650;2023-04-28T02:23:09;97446.09;;;8.76;55.27
16461;BME280;8341;42.048;24.650;2023-04-28T02:25:36;97443.22;;;8.79;57.64
16461;BME280;8341;42.048;24.650;2023-04-28T02:28:03;97447.47;;;8.71;56.21
16461;BME280;8341;42.048;24.650;2023-04-28T02:30:30;97450.34;;;8.77;54.67
16461;BME280;8341;42.048;24.650;2023-04-28T02:32:58;97460.13;;;8.83;56.24
16461;BME280;8341;42.048;24.650;2023-04-28T02:35:25;97451.09;;;8.77;54.84
16461;BME280;8341;42.048;24.650;2023-04-28T02:37:51;97466.34;;;8.84;55.18
16461;BME280;8341;42.048;24.650;2023-04-28T02:40:18;97468.16;;;8.78;54.99
16461;BME280;8341;42.048;24.650;2023-04-28T02:42:45;97472.38;;;8.79;55.12
16461;BME280;8341;42.048;24.650;2023-04-28T02:45:12;97469.06;;;8.84;55.00
16461;BME280;8341;42.048;24.650;2023-04-28T02:47:39;97472.09;;;8.77;54.56
16461;BME280;8341;42.048;24.650;2023-04-28T02:50:08;97475.09;;;8.79;55.08
16461;BME280;8341;42.048;24.650;2023-04-28T02:52:35;97472.97;;;8.92;53.56
16461;BME280;8341;42.048;24.650;2023-04-28T02:55:02;97484.75;;;8.89;54.29
16461;BME280;8341;42.048;24.650;2023-04-28T02:57:29;97491.09;;;8.86;54.93
16461;BME280;8341;42.048;24.650;2023-04-28T02:59:56;97487.50;;;8.80;55.57
16461;BME280;8341;42.048;24.650;2023-04-28T03:02:23;97488.41;;;8.59;55.07
16461;BME280;8341;42.048;24.650;2023-04-28T03:04:49;97503.66;;;8.56;55.98
16461;BME280;8341;42.048;24.650;2023-04-28T03:07:18;97495.03;;;8.67;55.24
16461;BME280;8341;42.048;24.650;2023-04-28T03:09:44;97496.25;;;8.66;55.03
16461;BME280;8341;42.048;24.650;2023-04-28T03:12:12;97493.22;;;8.55;57.05
16461;BME280;8341;42.048;24.650;2023-04-28T03:14:39;97492.16;;;8.61;56.21
16461;BME280;8341;42.048;24.650;2023-04-28T03:17:06;97491.09;;;8.59;56.92
16461;BME280;8341;42.048;24.650;2023-04-28T03:19:33;97501.53;;;8.42;55.38
16461;BME280;8341;42.048;24.650;2023-04-28T03:21:59;97502.88;;;8.47;57.30
16461;BME280;8341;42.048;24.650;2023-04-28T03:24:28;97503.66;;;8.47;55.74
16461;BME280;8341;42.048;24.650;2023-04-28T03:26:54;97514.06;;;8.49;56.45
16461;BME280;8341;42.048;24.650;2023-04-28T03:29:21;97500.34;;;8.52;56.69
16461;BME280;8341;42.048;24.650;2023-04-28T03:31:49;97507.25;;;8.53;55.54
16461;BME280;8341;42.048;24.650;2023-04-28T03:34:16;97505.75;;;8.52;57.78
16461;BME280;8341;42.048;24.650;2023-04-28T03:36:43;97512.88;;;8.50;55.07
16461;BME280;8341;42.048;24.650;2023-04-28T03:39:10;97506.38;;;8.56;55.02
16461;BME280;8341;42.048;24.650;2023-04-28T03:41:38;97503.78;;;8.53;56.79
16461;BME280;8341;42.048;24.650;2023-04-28T03:44:05;97511.03;;;8.56;56.26
16461;BME280;8341;42.048;24.650;2023-04-28T03:46:31;97512.69;;;8.44;57.86
16461;BME280;8341;42.048;24.650;2023-04-28T03:48:59;97509.22;;;8.44;56.95
16461;BME280;8341;42.048;24.650;2023-04-28T03:51:26;97507.69;;;8.43;57.86
16461;BME280;8341;42.048;24.650;2023-04-28T03:53:53;97508.47;;;8.52;57.00
16461;BME280;8341;42.048;24.650;2023-04-28T03:56:20;97509.81;;;8.48;57.42
16461;BME280;8341;42.048;24.650;2023-04-28T03:58:48;97518.59;;;8.61;55.29
16461;BME280;8341;42.048;24.650;2023-04-28T04:01:15;97517.97;;;8.48;54.47
16461;BME280;8341;42.048;24.650;2023-04-28T04:03:41;97520.13;;;8.62;55.26
16461;BME280;8341;42.048;24.650;2023-04-28T04:06:08;97524.22;;;8.75;55.41
16461;BME280;8341;42.048;24.650;2023-04-28T04:08:35;97529.47;;;8.79;53.91
16461;BME280;8341;42.048;24.650;2023-04-28T04:11:02;97533.72;;;8.80;55.17
16461;BME280;8341;42.048;24.650;2023-04-28T04:13:28;97512.72;;;8.71;52.75
16461;BME280;8341;42.048;24.650;2023-04-28T04:15:57;97542.50;;;8.93;52.21
16461;BME280;8341;42.048;24.650;2023-04-28T04:18:23;97542.50;;;8.93;52.65
16461;BME280;8341;42.048;24.650;2023-04-28T04:20:51;97548.38;;;9.01;52.33
16461;BME280;8341;42.048;24.650;2023-04-28T04:23:18;97550.03;;;9.07;52.31
16461;BME280;8341;42.048;24.650;2023-04-28T04:25:45;97563.47;;;9.20;50.58
16461;BME280;8341;42.048;24.650;2023-04-28T04:28:12;97570.88;;;9.28;52.67
16461;BME280;8341;42.048;24.650;2023-04-28T04:30:38;97566.66;;;9.36;49.01
16461;BME280;8341;42.048;24.650;2023-04-28T04:33:06;97560.00;;;9.28;49.96
16461;BME280;8341;42.048;24.650;2023-04-28T04:35:33;97550.63;;;9.29;50.22
16461;BME280;8341;42.048;24.650;2023-04-28T04:38:00;97572.63;;;9.77;47.69
16461;BME280;8341;42.048;24.650;2023-04-28T04:40:27;97575.00;;;10.58;47.54
16461;BME280;8341;42.048;24.650;2023-04-28T04:42:54;97579.94;;;11.31;45.49
16461;BME280;8341;42.048;24.650;2023-04-28T04:45:20;97574.78;;;11.33;44.54
16461;BME280;8341;42.048;24.650;2023-04-28T04:47:47;97580.91;;;11.04;43.52
16461;BME280;8341;42.048;24.650;2023-04-28T04:50:16;97585.34;;;11.02;45.31
16461;BME280;8341;42.048;24.650;2023-04-28T04:52:42;97590.09;;;10.92;46.02
16461;BME280;8341;42.048;24.650;2023-04-28T04:55:09;97590.75;;;10.87;44.63
16461;BME280;8341;42.048;24.650;2023-04-28T04:57:36;97590.91;;;10.84;44.31
16461;BME280;8341;42.048;24.650;2023-04-28T05:00:04;97591.84;;;11.04;45.79
16461;BME280;8341;42.048;24.650;2023-04-28T05:02:31;97597.59;;;11.06;45.09
16461;BME280;8341;42.048;24.650;2023-04-28T05:04:57;97598.97;;;11.02;43.23
16461;BME280;8341;42.048;24.650;2023-04-28T05:07:26;97597.25;;;10.90;45.44
16461;BME280;8341;42.048;24.650;2023-04-28T05:09:53;97610.88;;;10.90;45.10
16461;BME280;8341;42.048;24.650;2023-04-28T05:12:19;97608.75;;;10.94;45.00
16461;BME280;8341;42.048;24.650;2023-04-28T05:14:46;97614.50;;;10.96;45.58
16461;BME280;8341;42.048;24.650;2023-04-28T05:17:13;97612.75;;;10.84;45.51
16461;BME280;8341;42.048;24.650;2023-04-28T05:19:39;97612.84;;;10.89;44.47
16461;BME280;8341;42.048;24.650;2023-04-28T05:22:06;97614.63;;;10.78;44.28
16461;BME280;8341;42.048;24.650;2023-04-28T05:24:34;97618.63;;;10.91;45.32
16461;BME280;8341;42.048;24.650;2023-04-28T05:27:01;97608.28;;;10.95;45.08
16461;BME280;8341;42.048;24.650;2023-04-28T05:29:28;97610.84;;;10.75;44.14
16461;BME280;8341;42.048;24.650;2023-04-28T05:31:55;97617.06;;;10.76;43.08
16461;BME280;8341;42.048;24.650;2023-04-28T05:34:22;97617.59;;;10.89;42.88
16461;BME280;8341;42.048;24.650;2023-04-28T05:36:48;97622.09;;;10.92;44.76
16461;BME280;8341;42.048;24.650;2023-04-28T05:39:15;97623.44;;;10.96;44.13
16461;BME280;8341;42.048;24.650;2023-04-28T05:41:43;97623.03;;;10.89;43.25
16461;BME280;8341;42.048;24.650;2023-04-28T05:44:10;97625.69;;;10.74;43.92
16461;BME280;8341;42.048;24.650;2023-04-28T05:46:37;97616.22;;;10.84;43.84
16461;BME280;8341;42.048;24.650;2023-04-28T05:49:03;97625.94;;;10.85;42.77
16461;BME280;8341;42.048;24.650;2023-04-28T05:51:30;97632.44;;;10.88;43.64
16461;BME280;8341;42.048;24.650;2023-04-28T05:53:58;97628.66;;;11.09;43.36
16461;BME280;8341;42.048;24.650;2023-04-28T05:56:25;97638.13;;;10.99;43.40
16461;BME280;8341;42.048;24.650;2023-04-28T05:58:53;97638.06;;;11.08;43.41
16461;BME280;8341;42.048;24.650;2023-04-28T06:01:21;97634.72;;;11.27;42.67
16461;BME280;8341;42.048;24.650;2023-04-28T06:03:48;97637.41;;;11.13;43.17
16461;BME280;8341;42.048;24.650;2023-04-28T06:06:14;97638.72;;;11.41;43.61
16461;BME280;8341;42.048;24.650;2023-04-28T06:08:42;97636.34;;;11.34;43.29
16461;BME280;8341;42.048;24.650;2023-04-28T06:11:08;97637.16;;;11.49;42.40
16461;BME280;8341;42.048;24.650;2023-04-28T06:13:36;97636.13;;;11.61;43.84
16461;BME280;8341;42.048;24.650;2023-04-28T06:16:04;97638.28;;;11.57;41.48
16461;BME280;8341;42.048;24.650;2023-04-28T06:18:32;97639.25;;;11.69;42.46
16461;BME280;8341;42.048;24.650;2023-04-28T06:20:59;97634.91;;;11.62;43.14
16461;BME280;8341;42.048;24.650;2023-04-28T06:23:25;97645.19;;;11.67;43.69
16461;BME280;8341;42.048;24.650;2023-04-28T06:25:52;97647.78;;;11.71;42.45
16461;BME280;8341;42.048;24.650;2023-04-28T06:28:19;97643.34;;;11.73;43.24
16461;BME280;8341;42.048;24.650;2023-04-28T06:30:46;97633.88;;;11.60;42.62
16461;BME280;8341;42.048;24.650;2023-04-28T06:33:14;97631.19;;;11.74;42.58
16461;BME280;8341;42.048;24.650;2023-04-28T06:35:40;97633.09;;;11.59;42.36
16461;BME280;8341;42.048;24.650;2023-04-28T06:38:07;97632.25;;;11.53;42.79
16461;BME280;8341;42.048;24.650;2023-04-28T06:40:34;97631.84;;;11.46;42.89
16461;BME280;8341;42.048;24.650;2023-04-28T06:43:01;97632.44;;;11.50;43.32
16461;BME280;8341;42.048;24.650;2023-04-28T06:45:27;97634.41;;;11.49;43.25
16461;BME280;8341;42.048;24.650;2023-04-28T06:47:54;97637.34;;;11.60;42.99
16461;BME280;8341;42.048;24.650;2023-04-28T06:50:22;97620.47;;;11.47;42.07
16461;BME280;8341;42.048;24.650;2023-04-28T06:52:49;97642.38;;;11.76;43.87
16461;BME280;8341;42.048;24.650;2023-04-28T06:55:16;97632.97;;;11.77;43.54
16461;BME280;8341;42.048;24.650;2023-04-28T06:57:43;97640.72;;;11.93;42.87
16461;BME280;8341;42.048;24.650;2023-04-28T07:00:10;97637.22;;;11.93;43.14
16461;BME280;8341;42.048;24.650;2023-04-28T07:02:38;97638.81;;;11.85;42.80
16461;BME280;8341;42.048;24.650;2023-04-28T07:05:05;97632.78;;;11.96;42.60
16461;BME280;8341;42.048;24.650;2023-04-28T07:07:35;97630.72;;;12.05;43.17
16461;BME280;8341;42.048;24.650;2023-04-28T07:10:04;97647.69;;;12.09;41.97
16461;BME280;8341;42.048;24.650;2023-04-28T07:12:31;97641.38;;;12.03;43.74
16461;BME280;8341;42.048;24.650;2023-04-28T07:14:58;97643.81;;;12.01;42.42
16461;BME280;8341;42.048;24.650;2023-04-28T07:17:24;97634.47;;;12.22;41.87
16461;BME280;8341;42.048;24.650;2023-04-28T07:19:51;97644.94;;;12.24;42.69
16461;BME280;8341;42.048;24.650;2023-04-28T07:22:18;97630.31;;;12.41;43.47
16461;BME280;8341;42.048;24.650;2023-04-28T07:24:46;97640.75;;;12.43;42.08
16461;BME280;8341;42.048;24.650;2023-04-28T07:27:13;97636.72;;;12.38;43.07
16461;BME280;8341;42.048;24.650;2023-04-28T07:29:40;97637.19;;;12.37;42.89
16461;BME280;8341;42.048;24.650;2023-04-28T07:32:06;97635.50;;;12.39;42.85
16461;BME280;8341;42.048;24.650;2023-04-28T07:34:35;97635.22;;;12.37;42.78
16461;BME280;8341;42.048;24.650;2023-04-28T07:37:02;97649.41;;;12.56;42.26
16461;BME280;8341;42.048;24.650;2023-04-28T07:39:30;97644.25;;;12.58;41.28
16461;BME280;8341;42.048;24.650;2023-04-28T07:41:58;97634.38;;;12.66;42.12
16461;BME280;8341;42.048;24.650;2023-04-28T07:44:25;97636.31;;;12.60;42.27
16461;BME280;8341;42.048;24.650;2023-04-28T07:46:52;97628.81;;;12.75;41.80
16461;BME280;8341;42.048;24.650;2023-04-28T07:49:19;97633.41;;;12.84;42.42
16461;BME280;8341;42.048;24.650;2023-04-28T07:51:46;97635.84;;;13.16;41.23
16461;BME280;8341;42.048;24.650;2023-04-28T07:54:13;97627.97;;;13.24;41.86
16461;BME280;8341;42.048;24.650;2023-04-28T07:56:40;97632.41;;;13.42;42.40
16461;BME280;8341;42.048;24.650;2023-04-28T07:59:08;97619.94;;;13.41;41.32
16461;BME280;8341;42.048;24.650;2023-04-28T08:01:35;97625.16;;;13.39;40.61
16461;BME280;8341;42.048;24.650;2023-04-28T08:04:02;97609.03;;;12.86;38.58
16461;BME280;8341;42.048;24.650;2023-04-28T08:06:28;97622.75;;;13.06;41.16
16461;BME280;8341;42.048;24.650;2023-04-28T08:08:55;97612.84;;;13.29;40.60
16461;BME280;8341;42.048;24.650;2023-04-28T08:11:22;97627.47;;;13.26;40.45
16461;BME280;8341;42.048;24.650;2023-04-28T08:13:49;97602.81;;;13.46;41.15
16461;BME280;8341;42.048;24.650;2023-04-28T08:16:17;97607.56;;;13.71;41.25
16461;BME280;8341;42.048;24.650;2023-04-28T08:18:44;97612.88;;;13.80;40.47
16461;BME280;8341;42.048;24.650;2023-04-28T08:21:11;97611.84;;;14.03;40.71
16461;BME280;8341;42.048;24.650;2023-04-28T08:23:38;97613.16;;;14.13;39.23
16461;BME280;8341;42.048;24.650;2023-04-28T08:26:04;97605.59;;;14.03;39.35
16461;BME280;8341;42.048;24.650;2023-04-28T08:28:31;97610.03;;;14.26;40.85
16461;BME280;8341;42.048;24.650;2023-04-28T08:30:58;97605.41;;;14.37;38.28
16461;BME280;8341;42.048;24.650;2023-04-28T08:33:27;97609.13;;;14.34;38.82
16461;BME280;8341;42.048;24.650;2023-04-28T08:35:54;97608.97;;;14.18;37.17
16461;BME280;8341;42.048;24.650;2023-04-28T08:38:21;97607.19;;;14.46;39.21
16461;BME280;8341;42.048;24.650;2023-04-28T08:40:49;97601.88;;;14.06;36.27
16461;BME280;8341;42.048;24.650;2023-04-28T08:43:16;97600.66;;;14.38;37.32
16461;BME280;8341;42.048;24.650;2023-04-28T08:45:45;97591.66;;;14.69;39.44
16461;BME280;8341;42.048;24.650;2023-04-28T08:48:16;97587.75;;;14.86;37.44
16461;BME280;8341;42.048;24.650;2023-04-28T08:50:48;97585.78;;;14.98;38.18
16461;BME280;8341;42.048;24.650;2023-04-28T08:53:21;97586.16;;;15.28;37.71
16461;BME280;8341;42.048;24.650;2023-04-28T08:55:50;97593.34;;;14.66;35.05
16461;BME280;8341;42.048;24.650;2023-04-28T08:58:18;97576.47;;;14.84;38.41
16461;BME280;8341;42.048;24.650;2023-04-28T09:00:45;97585.59;;;15.13;37.75
16461;BME280;8341;42.048;24.650;2023-04-28T09:03:12;97586.91;;;15.23;36.84
16461;BME280;8341;42.048;24.650;2023-04-28T09:05:39;97582.09;;;15.18;35.36
16461;BME280;8341;42.048;24.650;2023-04-28T09:08:07;97583.88;;;14.67;36.34
16461;BME280;8341;42.048;24.650;2023-04-28T09:10:36;97583.84;;;15.15;36.62
16461;BME280;8341;42.048;24.650;2023-04-28T09:13:03;97579.38;;;15.23;38.26
16461;BME280;8341;42.048;24.650;2023-04-28T09:15:32;97568.50;;;15.56;37.44
16461;BME280;8341;42.048;24.650;2023-04-28T09:18:00;97576.25;;;15.52;35.20
16461;BME280;8341;42.048;24.650;2023-04-28T09:20:28;97573.03;;;15.71;36.55
16461;BME280;8341;42.048;24.650;2023-04-28T09:23:13;97574.38;;;15.16;33.80
16461;BME280;8341;42.048;24.650;2023-04-28T09:25:54;97570.84;;;15.10;34.22
16461;BME280;8341;42.048;24.650;2023-04-28T09:28:22;97568.38;;;15.23;36.99
16461;BME280;8341;42.048;24.650;2023-04-28T09:30:48;97561.75;;;15.52;37.78
16461;BME280;8341;42.048;24.650;2023-04-28T09:33:15;97548.28;;;15.59;36.36
16461;BME280;8341;42.048;24.650;2023-04-28T09:35:42;97561.53;;;15.66;35.88
16461;BME280;8341;42.048;24.650;2023-04-28T09:38:12;97563.44;;;15.44;35.30
16461;BME280;8341;42.048;24.650;2023-04-28T09:40:49;97566.00;;;15.64;35.10
16461;BME280;8341;42.048;24.650;2023-04-28T09:43:27;97555.47;;;15.46;36.49
16461;BME280;8341;42.048;24.650;2023-04-28T09:45:54;97557.22;;;15.38;34.92
16461;BME280;8341;42.048;24.650;2023-04-28T09:48:30;97554.50;;;15.54;36.55
16461;BME280;8341;42.048;24.650;2023-04-28T09:50:57;97553.03;;;15.76;35.46
16461;BME280;8341;42.048;24.650;2023-04-28T09:53:26;97542.28;;;15.55;36.09
16461;BME280;8341;42.048;24.650;2023-04-28T09:55:54;97535.94;;;15.38;35.59
16461;BME280;8341;42.048;24.650;2023-04-28T09:58:23;97536.97;;;15.35;35.41
16461;BME280;8341;42.048;24.650;2023-04-28T10:00:52;97529.97;;;15.34;37.47
16461;BME280;8341;42.048;24.650;2023-04-28T10:03:21;97528.94;;;15.26;34.17
16461;BME280;8341;42.048;24.650;2023-04-28T10:05:49;97543.78;;;15.68;34.00
16461;BME280;8341;42.048;24.650;2023-04-28T10:08:18;97543.03;;;15.95;32.88
16461;BME280;8341;42.048;24.650;2023-04-28T10:10:48;97537.03;;;16.24;33.02
16461;BME280;8341;42.048;24.650;2023-04-28T10:13:16;97536.28;;;16.07;33.29
16461;BME280;8341;42.048;24.650;2023-04-28T10:15:43;97529.97;;;16.45;33.96
16461;BME280;8341;42.048;24.650;2023-04-28T10:18:11;97519.69;;;16.68;33.34
16461;BME280;8341;42.048;24.650;2023-04-28T10:20:39;97525.47;;;16.59;32.13
16461;BME280;8341;42.048;24.650;2023-04-28T10:23:30;97519.16;;;16.69;32.17
16461;BME280;8341;42.048;24.650;2023-04-28T10:26:03;97511.94;;;16.61;31.63
16461;BME280;8341;42.048;24.650;2023-04-28T10:28:35;97517.97;;;16.48;30.54
16461;BME280;8341;42.048;24.650;2023-04-28T10:31:08;97511.88;;;16.77;31.92
16461;BME280;8341;42.048;24.650;2023-04-28T10:33:36;97499.69;;;16.51;32.40
16461;BME280;8341;42.048;24.650;2023-04-28T10:36:04;97518.47;;;16.58;30.67
16461;BME280;8341;42.048;24.650;2023-04-28T10:38:32;97515.00;;;16.24;32.44
16461;BME280;8341;42.048;24.650;2023-04-28T10:40:59;97514.47;;;16.31;32.15
16461;BME280;8341;42.048;24.650;2023-04-28T10:43:36;97511.13;;;16.77;32.58
16461;BME280;8341;42.048;24.650;2023-04-28T10:46:05;97517.22;;;17.11;31.51
16461;BME280;8341;42.048;24.650;2023-04-28T10:48:55;97507.00;;;16.26;30.03
16461;BME280;8341;42.048;24.650;2023-04-28T10:51:29;97497.25;;;17.05;32.00
16461;BME280;8341;42.048;24.650;2023-04-28T10:54:17;97497.78;;;17.38;30.18
16461;BME280;8341;42.048;24.650;2023-04-28T10:57:16;97487.66;;;17.17;29.24
16461;BME280;8341;42.048;24.650;2023-04-28T10:59:51;97486.25;;;16.99;29.94
16461;BME280;8341;42.048;24.650;2023-04-28T11:02:38;97490.06;;;16.85;30.59
16461;BME280;8341;42.048;24.650;2023-04-28T11:05:12;97490.25;;;16.18;31.56
16461;BME280;8341;42.048;24.650;2023-04-28T11:07:39;97489.22;;;16.38;33.50
16461;BME280;8341;42.048;24.650;2023-04-28T11:10:07;97500.47;;;16.46;31.25
16461;BME280;8341;42.048;24.650;2023-04-28T11:12:34;97492.09;;;16.79;31.54
16461;BME280;8341;42.048;24.650;2023-04-28T11:15:12;97498.13;;;16.72;31.32
16461;BME280;8341;42.048;24.650;2023-04-28T11:17:40;97481.72;;;17.02;32.02
16461;BME280;8341;42.048;24.650;2023-04-28T11:20:11;97495.47;;;17.07;32.31
16461;BME280;8341;42.048;24.650;2023-04-28T11:22:40;97481.78;;;17.31;32.48
16461;BME280;8341;42.048;24.650;2023-04-28T11:25:07;97468.22;;;17.33;31.41
16461;BME280;8341;42.048;24.650;2023-04-28T11:27:34;97469.94;;;17.77;32.32
16461;BME280;8341;42.048;24.650;2023-04-28T11:30:02;97475.22;;;17.75;30.57
16461;BME280;8341;42.048;24.650;2023-04-28T11:32:33;97476.69;;;17.82;28.53
16461;BME280;8341;42.048;24.650;2023-04-28T11:34:59;97474.97;;;18.03;32.78
16461;BME280;8341;42.048;24.650;2023-04-28T11:37:27;97473.66;;;17.50;30.22
16461;BME280;8341;42.048;24.650;2023-04-28T11:39:54;97461.66;;;17.42;30.52
16461;BME280;8341;42.048;24.650;2023-04-28T11:42:21;97469.06;;;17.64;29.81
16461;BME280;8341;42.048;24.650;2023-04-28T11:44:51;97467.88;;;17.83;30.21
16461;BME280;8341;42.048;24.650;2023-04-28T11:47:28;97466.16;;;17.80;29.37
16461;BME280;8341;42.048;24.650;2023-04-28T11:49:57;97467.28;;;17.96;29.66
16461;BME280;8341;42.048;24.650;2023-04-28T11:52:24;97459.16;;;18.03;26.94
16461;BME280;8341;42.048;24.650;2023-04-28T11:54:56;97453.72;;;17.68;27.91
16461;BME280;8341;42.048;24.650;2023-04-28T11:57:25;97456.16;;;17.77;27.25
16461;BME280;8341;42.048;24.650;2023-04-28T11:59:52;97448.88;;;18.04;30.17
16461;BME280;8341;42.048;24.650;2023-04-28T12:02:24;97452.50;;;18.18;31.40
16461;BME280;8341;42.048;24.650;2023-04-28T12:04:53;97449.09;;;17.82;29.59
16461;BME280;8341;42.048;24.650;2023-04-28T12:07:21;97449.41;;;17.73;29.78
16461;BME280;8341;42.048;24.650;2023-04-28T12:10:09;97441.91;;;17.38;28.94
16461;BME280;8341;42.048;24.650;2023-04-28T12:12:36;97444.66;;;17.73;30.61
16461;BME280;8341;42.048;24.650;2023-04-28T12:15:04;97431.19;;;17.29;28.21
16461;BME280;8341;42.048;24.650;2023-04-28T12:17:33;97432.06;;;17.78;29.07
16461;BME280;8341;42.048;24.650;2023-04-28T12:20:01;97418.81;;;18.00;29.87
16461;BME280;8341;42.048;24.650;2023-04-28T12:22:29;97423.19;;;18.14;32.14
16461;BME280;8341;42.048;24.650;2023-04-28T12:25:04;97410.19;;;18.09;28.47
16461;BME280;8341;42.048;24.650;2023-04-28T12:27:32;97410.97;;;18.29;32.20
16461;BME280;8341;42.048;24.650;2023-04-28T12:30:00;97405.25;;;18.45;29.44
16461;BME280;8341;42.048;24.650;2023-04-28T12:32:37;97408.66;;;18.75;30.43
16461;BME280;8341;42.048;24.650;2023-04-28T12:35:06;97398.13;;;18.93;29.09
16461;BME280;8341;42.048;24.650;2023-04-28T12:37:34;97405.28;;;18.21;28.35
16461;BME280;8341;42.048;24.650;2023-04-28T12:40:03;97391.28;;;17.71;28.93
16461;BME280;8341;42.048;24.650;2023-04-28T12:42:30;97379.84;;;17.61;29.09
16461;BME280;8341;42.048;24.650;2023-04-28T12:44:57;97389.56;;;17.92;31.95
16461;BME280;8341;42.048;24.650;2023-04-28T12:47:24;97387.63;;;17.57;29.08
16461;BME280;8341;42.048;24.650;2023-04-28T12:49:51;97382.53;;;17.67;29.94
16461;BME280;8341;42.048;24.650;2023-04-28T12:52:18;97383.69;;;17.77;30.26
16461;BME280;8341;42.048;24.650;2023-04-28T12:54:47;97379.84;;;17.85;29.66
16461;BME280;8341;42.048;24.650;2023-04-28T12:57:14;97382.81;;;17.87;29.68
16461;BME280;8341;42.048;24.650;2023-04-28T12:59:41;97354.31;;;17.55;29.01
16461;BME280;8341;42.048;24.650;2023-04-28T13:02:08;97376.44;;;17.98;30.82
16461;BME280;8341;42.048;24.650;2023-04-28T13:04:35;97367.06;;;18.06;28.84
16461;BME280;8341;42.048;24.650;2023-04-28T13:07:02;97359.53;;;17.83;28.31